地図

経路データ

SID SEASON NUMBER BASIN SUBBASIN NAME ISO_TIME NATURE LAT LON WMO_WIND WMO_PRES WMO_AGENCY TRACK_TYPE DIST2LAND LANDFALL IFLAG USA_AGENCY USA_ATCF_ID USA_LAT USA_LON USA_RECORD USA_STATUS USA_WIND USA_PRES USA_SSHS USA_R34_NE USA_R34_SE USA_R34_SW USA_R34_NW USA_R50_NE USA_R50_SE USA_R50_SW USA_R50_NW USA_R64_NE USA_R64_SE USA_R64_SW USA_R64_NW USA_POCI USA_ROCI USA_RMW USA_EYE TOKYO_LAT TOKYO_LON TOKYO_GRADE TOKYO_WIND TOKYO_PRES TOKYO_R50_DIR TOKYO_R50_LONG TOKYO_R50_SHORT TOKYO_R30_DIR TOKYO_R30_LONG TOKYO_R30_SHORT TOKYO_LAND CMA_LAT CMA_LON CMA_CAT CMA_WIND CMA_PRES HKO_LAT HKO_LON HKO_CAT HKO_WIND HKO_PRES NEWDELHI_LAT NEWDELHI_LON NEWDELHI_GRADE NEWDELHI_WIND NEWDELHI_PRES NEWDELHI_CI NEWDELHI_DP NEWDELHI_POCI REUNION_LAT REUNION_LON REUNION_TYPE REUNION_WIND REUNION_PRES REUNION_TNUM REUNION_CI REUNION_RMW REUNION_R34_NE REUNION_R34_SE REUNION_R34_SW REUNION_R34_NW REUNION_R50_NE REUNION_R50_SE REUNION_R50_SW REUNION_R50_NW REUNION_R64_NE REUNION_R64_SE REUNION_R64_SW REUNION_R64_NW BOM_LAT BOM_LON BOM_TYPE BOM_WIND BOM_PRES BOM_TNUM BOM_CI BOM_RMW BOM_R34_NE BOM_R34_SE BOM_R34_SW BOM_R34_NW BOM_R50_NE BOM_R50_SE BOM_R50_SW BOM_R50_NW BOM_R64_NE BOM_R64_SE BOM_R64_SW BOM_R64_NW BOM_ROCI BOM_POCI BOM_EYE BOM_POS_METHOD BOM_PRES_METHOD NADI_LAT NADI_LON NADI_CAT NADI_WIND NADI_PRES WELLINGTON_LAT WELLINGTON_LON WELLINGTON_WIND WELLINGTON_PRES DS824_LAT DS824_LON DS824_STAGE DS824_WIND DS824_PRES TD9636_LAT TD9636_LON TD9636_STAGE TD9636_WIND TD9636_PRES TD9635_LAT TD9635_LON TD9635_WIND TD9635_PRES TD9635_ROCI NEUMANN_LAT NEUMANN_LON NEUMANN_CLASS NEUMANN_WIND NEUMANN_PRES MLC_LAT MLC_LON MLC_CLASS MLC_WIND MLC_PRES USA_GUST BOM_GUST BOM_GUST_PER REUNION_GUST REUNION_GUST_PER USA_SEAHGT USA_SEARAD_NE USA_SEARAD_SE USA_SEARAD_SW USA_SEARAD_NW STORM_SPEED STORM_DIR
2021214N20155 2021 56 WP MM NOT_NAMED 2021-08-01 18:00:00 TS 20.0000 155.400 main 2243 2178 O_____________ jtwc_wp WP122021 20.0000 155.400 TD 25 1004 -1 1006 110 35 14 342
2021214N20155 2021 56 WP MM NOT_NAMED 2021-08-01 21:00:00 TS 20.6625 155.172 main 2169 2088 P_____________ WP122021 20.6625 155.172 TD 25 1004 -1 1006 110 35 15 342
2021214N20155 2021 56 WP MM NOT_NAMED 2021-08-02 00:00:00 TS 21.4000 154.900 main 2088 2000 O_____________ jtwc_wp WP122021 21.4000 154.900 TD 25 1004 -1 1006 110 35 17 340
2021214N20155 2021 56 WP MM NOT_NAMED 2021-08-02 03:00:00 TS 22.2375 154.558 main 2000 1905 P_____________ WP122021 22.2375 154.558 TD 25 1003 -1 1006 110 35 17 338
2021214N20155 2021 56 WP MM NOT_NAMED 2021-08-02 06:00:00 TS 23.0000 154.200 main 1905 1852 O_____________ jtwc_wp WP122021 23.0000 154.200 TD 25 1002 -1 1006 110 35 14 333
2021214N20155 2021 56 WP MM NOT_NAMED 2021-08-02 09:00:00 TS 23.4649 153.877 main 1843 1790 P_____________ WP122021 23.4649 153.877 TD 27 1002 -1 1007 110 35 11 329
2021214N20155 2021 56 WP MM NOT_NAMED 2021-08-02 12:00:00 TS 23.9000 153.600 main 1790 1727 O_____________ jtwc_wp WP122021 23.9000 153.600 TD 30 1003 -1 1008 110 35 12 340
2021214N20155 2021 56 WP MM NOT_NAMED 2021-08-02 15:00:00 TS 24.5847 153.429 main 1718 1648 P_____________ WP122021 24.5847 153.429 TD 32 1001 -1 1008 110 35 15 345
2021214N20155 2021 56 WP MM NOT_NAMED 2021-08-02 18:00:00 TS 25.3000 153.200 main 1648 1580 O_____________ jtwc_wp WP122021 25.3000 153.200 TS 35 1000 0 1008 110 35 14 335
2021214N20155 2021 56 WP MM NOT_NAMED 2021-08-02 21:00:00 TS 25.8723 152.775 main 1573 1491 P_____________ WP122021 25.8723 152.775 TS 32 1001 -1 1008 110 35 14 321
2021214N20155 2021 56 WP MM NOT_NAMED 2021-08-03 00:00:00 TS 26.4000 152.200 main 1491 1409 O_____________ jtwc_wp WP122021 26.4000 152.200 TD 30 1002 -1 1008 110 35 16 314
2021214N20155 2021 56 WP MM NOT_NAMED 2021-08-03 03:00:00 TS 26.9653 151.515 main 1394 1306 P_____________ WP122021 26.9653 151.515 TD 27 1003 -1 1008 110 35 17 311
2021214N20155 2021 56 WP MM NOT_NAMED 2021-08-03 06:00:00 TS 27.5000 150.800 main 1306 1232 O_____________ jtwc_wp WP122021 27.5000 150.800 TD 25 1004 -1 1008 110 35 15 313
2021214N20155 2021 56 WP MM NOT_NAMED 2021-08-03 09:00:00 TS 27.9851 150.288 main 1232 1158 P_____________ WP122021 27.9851 150.288 TD 22 1005 -1 1008 110 35 14 310
2021214N20155 2021 56 WP MM NOT_NAMED 2021-08-03 12:00:00 NR 28.4000 149.600 main 1151 1051 O_____________ jtwc_wp WP122021 28.4000 149.600 DB 20 1007 -3 1008 110 35 18 294
2021214N20155 2021 56 WP MM NOT_NAMED 2021-08-03 15:00:00 NR 28.7470 148.376 main 1044 934 P_____________ WP122021 28.7470 148.376 DB 20 1006 -3 1008 110 35 24 285
2021214N20155 2021 56 WP MM NOT_NAMED 2021-08-03 18:00:00 NR 29.0000 147.000 main 928 845 O_____________ jtwc_wp WP122021 29.0000 147.000 DB 20 1006 -3 1008 110 35 23 281
2021214N20155 2021 56 WP MM NOT_NAMED 2021-08-03 21:00:00 NR 29.1796 145.809 main 839 775 P_____________ WP122021 29.1796 145.809 DB 20 1006 -3 1008 110 35 19 279
2021214N20155 2021 56 WP MM NOT_NAMED 2021-08-04 00:00:00 NR 29.3000 144.800 main 775 734 O_____________ jtwc_wp WP122021 29.3000 144.800 DB 20 1007 -3 1008 110 35 15 280
2021214N20155 2021 56 WP MM NOT_NAMED 2021-08-04 03:00:00 NR 29.4270 144.115 main 729 690 P_____________ WP122021 29.4270 144.115 DB 20 1007 -3 1008 110 35 12 279
2021214N20155 2021 56 WP MM NOT_NAMED 2021-08-04 06:00:00 NR 29.5000 143.400 main 686 639 O_____________ jtwc_wp WP122021 29.5000 143.400 DB 20 1007 -3 1008 110 35 17 271
2021214N20155 2021 56 WP MM NOT_NAMED 2021-08-04 09:00:00 NR 29.4684 142.139 main 636 615 P_____________ WP122021 29.4684 142.139 DB 22 1005 -3 1008 110 35 21 267
2021214N20155 2021 56 WP MM NOT_NAMED 2021-08-04 12:00:00 TS 29.4000 141.000 main 615 604 O_____________ jtwc_wp WP122021 29.4000 141.000 TD 25 1004 -1 1008 110 35 14 267
2021214N20155 2021 56 WP MM NOT_NAMED 2021-08-04 15:00:00 TS 29.3980 140.573 main 604 599 P_____________ WP122021 29.3980 140.573 TD 22 1003 -1 1006 110 40 5 270
2021214N20155 2021 56 WP MM NOT_NAMED 2021-08-04 18:00:00 NR 29.4000 140.400 main 599 594 O_____________ jtwc_wp WP122021 29.4000 140.400 DB 20 1002 -3 1004 110 45 4 261
2021214N20155 2021 56 WP MM NOT_NAMED 2021-08-04 21:00:00 NR 29.3410 140.162 main 605 588 P_____________ WP122021 29.3410 140.162 DB 20 1002 -3 1004 110 45 6 261
2021214N20155 2021 56 WP MM NOT_NAMED 2021-08-05 00:00:00 NR 29.3000 139.700 main 588 533 O_____________ jtwc_wp WP122021 29.3000 139.700 DB 20 1002 -3 1004 110 45 13 270
2021214N20155 2021 56 WP MM NOT_NAMED 2021-08-05 03:00:00 NR 29.3377 138.673 main 533 477 P_____________ WP122021 29.3377 138.673 DB 22 1000 -3 1003 110 40 18 273
2021214N20155 2021 56 WP MM NOT_NAMED 2021-08-05 06:00:00 TS 29.4000 137.600 main 477 460 O_____________ jtwc_wp WP122021 29.4000 137.600 TD 25 998 -1 1003 110 35 15 271
2021214N20155 2021 56 WP MM NOT_NAMED 2021-08-05 09:00:00 TS 29.3739 136.972 main 460 441 P_____________ WP122021 29.3739 136.972 TD 25 998 -1 1003 110 35 9 277
2021214N20155 2021 56 WP MM NOT_NAMED 2021-08-05 12:00:00 TS 29.5000 136.600 main 441 383 O_____________ jtwc_wp WP122021 29.5000 136.600 TD 25 998 -1 1003 110 35 8 323
2021214N20155 2021 56 WP MM NOT_NAMED 2021-08-05 15:00:00 TS 30.0117 136.414 main 383 314 P_____________ WP122021 30.0117 136.414 TD 25 996 -1 1002 102 35 12 342
2021214N20155 2021 56 WP MM NOT_NAMED 2021-08-05 18:00:00 TS 30.6000 136.200 main 314 278 O_____________ jtwc_wp WP122021 30.6000 136.200 TD 25 995 -1 1001 95 35 11 328
2021214N20155 2021 56 WP MM NOT_NAMED 2021-08-05 21:00:00 TS 30.9593 135.720 main 267 235 P_____________ WP122021 30.9593 135.720 TD 25 996 -1 1002 95 35 12 300
2021214N20155 2021 56 WP MM NOT_NAMED 2021-08-06 00:00:00 TS 31.2000 135.000 main 235 178 O_____________ jtwc_wp WP122021 31.2000 135.000 TD 25 997 -1 1003 95 35 15 286
2021214N20155 2021 56 WP MM NOT_NAMED 2021-08-06 03:00:00 TS 31.3697 134.061 main 178 134 P_____________ WP122021 31.3697 134.061 TD 22 998 -1 1003 95 35 17 280
2021214N20155 2021 56 WP MM NOT_NAMED 2021-08-06 06:00:00 NR 31.5000 133.000 main 133 O_____________ jtwc_wp WP122021 31.5000 133.000 DB 20 1000 -3 1003 95 35 18 278

デジタル台風データ・検索

IBTrACS Databaseについて

本データベースは、米国NOAAが公開する1842年以降の世界の熱帯低気圧のベストトラックデータアーカイブInternational Best Track Archive for Climate Stewardship (IBTrACS)を、ウェブで閲覧しやすい形式に変換したものです。

最終更新日:2022-11-16